sensor_id;sensor_type;location;lat;lon;timestamp;temperature;humidity
4637;DHT22;2331;48.806;9.140;2023-09-19T00:00:16;20.30;1.00
4637;DHT22;2331;48.806;9.140;2023-09-19T00:02:46;20.20;1.00
4637;DHT22;2331;48.806;9.140;2023-09-19T00:05:13;20.10;1.00
4637;DHT22;2331;48.806;9.140;2023-09-19T00:07:40;20.20;1.00
4637;DHT22;2331;48.806;9.140;2023-09-19T00:10:07;20.20;1.00
4637;DHT22;2331;48.806;9.140;2023-09-19T00:12:35;20.20;1.00
4637;DHT22;2331;48.806;9.140;2023-09-19T00:15:03;20.10;1.00
4637;DHT22;2331;48.806;9.140;2023-09-19T00:17:32;20.10;1.00
4637;DHT22;2331;48.806;9.140;2023-09-19T00:20:01;20.20;1.00
4637;DHT22;2331;48.806;9.140;2023-09-19T00:22:32;20.20;1.00
4637;DHT22;2331;48.806;9.140;2023-09-19T00:24:59;20.10;1.00
4637;DHT22;2331;48.806;9.140;2023-09-19T00:27:26;20.20;1.00
4637;DHT22;2331;48.806;9.140;2023-09-19T00:29:53;20.20;1.00
4637;DHT22;2331;48.806;9.140;2023-09-19T00:32:21;20.20;1.00
4637;DHT22;2331;48.806;9.140;2023-09-19T00:34:48;20.30;1.00
4637;DHT22;2331;48.806;9.140;2023-09-19T00:37:16;20.30;1.00
4637;DHT22;2331;48.806;9.140;2023-09-19T00:39:43;20.30;1.00
4637;DHT22;2331;48.806;9.140;2023-09-19T00:42:18;20.30;1.00
4637;DHT22;2331;48.806;9.140;2023-09-19T00:44:46;20.30;1.00
4637;DHT22;2331;48.806;9.140;2023-09-19T00:50:35;20.30;1.00
4637;DHT22;2331;48.806;9.140;2023-09-19T00:53:04;20.40;1.00
4637;DHT22;2331;48.806;9.140;2023-09-19T00:55:34;20.30;1.00
4637;DHT22;2331;48.806;9.140;2023-09-19T00:58:03;20.40;1.00
4637;DHT22;2331;48.806;9.140;2023-09-19T01:00:32;20.30;1.00
4637;DHT22;2331;48.806;9.140;2023-09-19T01:02:59;20.40;1.00
4637;DHT22;2331;48.806;9.140;2023-09-19T01:05:27;20.30;1.00
4637;DHT22;2331;48.806;9.140;2023-09-19T01:07:55;20.20;1.00
4637;DHT22;2331;48.806;9.140;2023-09-19T01:10:25;20.20;1.00
4637;DHT22;2331;48.806;9.140;2023-09-19T01:12:59;20.10;1.00
4637;DHT22;2331;48.806;9.140;2023-09-19T01:15:43;20.10;1.00
4637;DHT22;2331;48.806;9.140;2023-09-19T01:18:20;20.10;1.00
4637;DHT22;2331;48.806;9.140;2023-09-19T01:20:56;20.20;1.00
4637;DHT22;2331;48.806;9.140;2023-09-19T01:23:32;20.20;1.00
4637;DHT22;2331;48.806;9.140;2023-09-19T01:26:11;20.30;1.00
4637;DHT22;2331;48.806;9.140;2023-09-19T01:29:06;20.30;1.00
4637;DHT22;2331;48.806;9.140;2023-09-19T01:31:42;20.20;1.00
4637;DHT22;2331;48.806;9.140;2023-09-19T01:34:10;20.10;1.00
4637;DHT22;2331;48.806;9.140;2023-09-19T01:36:38;20.20;1.00
4637;DHT22;2331;48.806;9.140;2023-09-19T01:39:06;20.20;1.00
4637;DHT22;2331;48.806;9.140;2023-09-19T01:41:46;20.20;1.00
4637;DHT22;2331;48.806;9.140;2023-09-19T01:44:21;20.20;1.00
4637;DHT22;2331;48.806;9.140;2023-09-19T01:46:50;20.20;1.00
4637;DHT22;2331;48.806;9.140;2023-09-19T01:49:25;20.20;1.00
4637;DHT22;2331;48.806;9.140;2023-09-19T01:52:02;20.20;1.00
4637;DHT22;2331;48.806;9.140;2023-09-19T01:54:33;20.20;1.00
4637;DHT22;2331;48.806;9.140;2023-09-19T01:57:07;20.10;1.00
4637;DHT22;2331;48.806;9.140;2023-09-19T01:59:41;20.10;1.00
4637;DHT22;2331;48.806;9.140;2023-09-19T02:02:12;20.10;1.00
4637;DHT22;2331;48.806;9.140;2023-09-19T02:04:39;20.10;1.00
4637;DHT22;2331;48.806;9.140;2023-09-19T02:07:06;20.10;1.00
4637;DHT22;2331;48.806;9.140;2023-09-19T02:09:33;20.00;1.00
4637;DHT22;2331;48.806;9.140;2023-09-19T02:12:00;20.10;1.00
4637;DHT22;2331;48.806;9.140;2023-09-19T02:14:30;20.00;1.00
4637;DHT22;2331;48.806;9.140;2023-09-19T02:16:56;20.00;1.00
4637;DHT22;2331;48.806;9.140;2023-09-19T02:19:24;20.00;1.00
4637;DHT22;2331;48.806;9.140;2023-09-19T02:21:51;20.00;1.00
4637;DHT22;2331;48.806;9.140;2023-09-19T02:24:18;20.00;1.00
4637;DHT22;2331;48.806;9.140;2023-09-19T02:26:44;19.90;1.00
4637;DHT22;2331;48.806;9.140;2023-09-19T02:29:11;19.80;1.00
4637;DHT22;2331;48.806;9.140;2023-09-19T02:31:38;19.80;1.00
4637;DHT22;2331;48.806;9.140;2023-09-19T02:34:08;19.80;1.00
4637;DHT22;2331;48.806;9.140;2023-09-19T02:36:37;19.90;1.00
4637;DHT22;2331;48.806;9.140;2023-09-19T02:39:04;19.80;1.00
4637;DHT22;2331;48.806;9.140;2023-09-19T02:41:33;19.70;1.00
4637;DHT22;2331;48.806;9.140;2023-09-19T02:44:00;19.60;1.00
4637;DHT22;2331;48.806;9.140;2023-09-19T02:46:28;19.50;1.00
4637;DHT22;2331;48.806;9.140;2023-09-19T02:48:54;19.50;1.00
4637;DHT22;2331;48.806;9.140;2023-09-19T02:51:21;19.60;1.00
4637;DHT22;2331;48.806;9.140;2023-09-19T02:53:49;19.50;1.00
4637;DHT22;2331;48.806;9.140;2023-09-19T02:56:17;19.40;1.00
4637;DHT22;2331;48.806;9.140;2023-09-19T02:58:44;19.40;1.00
4637;DHT22;2331;48.806;9.140;2023-09-19T03:01:11;19.40;1.00
4637;DHT22;2331;48.806;9.140;2023-09-19T03:03:38;19.40;1.00
4637;DHT22;2331;48.806;9.140;2023-09-19T03:06:06;19.40;1.00
4637;DHT22;2331;48.806;9.140;2023-09-19T03:08:34;19.40;1.00
4637;DHT22;2331;48.806;9.140;2023-09-19T03:11:04;19.40;1.00
4637;DHT22;2331;48.806;9.140;2023-09-19T03:13:33;19.40;1.00
4637;DHT22;2331;48.806;9.140;2023-09-19T03:16:01;19.40;1.00
4637;DHT22;2331;48.806;9.140;2023-09-19T03:18:31;19.50;1.00
4637;DHT22;2331;48.806;9.140;2023-09-19T03:20:58;19.40;1.00
4637;DHT22;2331;48.806;9.140;2023-09-19T03:23:25;19.40;1.00
4637;DHT22;2331;48.806;9.140;2023-09-19T03:25:53;19.40;1.00
4637;DHT22;2331;48.806;9.140;2023-09-19T03:28:21;19.40;1.00
4637;DHT22;2331;48.806;9.140;2023-09-19T03:30:57;19.40;1.00
4637;DHT22;2331;48.806;9.140;2023-09-19T03:33:24;19.40;1.00
4637;DHT22;2331;48.806;9.140;2023-09-19T03:35:52;19.40;1.00
4637;DHT22;2331;48.806;9.140;2023-09-19T03:38:19;19.40;1.00
4637;DHT22;2331;48.806;9.140;2023-09-19T03:40:47;19.50;1.00
4637;DHT22;2331;48.806;9.140;2023-09-19T03:43:14;19.50;1.00
4637;DHT22;2331;48.806;9.140;2023-09-19T03:45:42;19.60;1.00
4637;DHT22;2331;48.806;9.140;2023-09-19T03:48:09;19.70;1.00
4637;DHT22;2331;48.806;9.140;2023-09-19T03:50:36;19.70;1.00
4637;DHT22;2331;48.806;9.140;2023-09-19T03:53:03;19.70;1.00
4637;DHT22;2331;48.806;9.140;2023-09-19T03:55:30;19.70;1.00
4637;DHT22;2331;48.806;9.140;2023-09-19T03:57:56;19.80;1.00
4637;DHT22;2331;48.806;9.140;2023-09-19T04:00:23;19.80;1.00
4637;DHT22;2331;48.806;9.140;2023-09-19T04:02:53;19.80;1.00
4637;DHT22;2331;48.806;9.140;2023-09-19T04:05:21;19.80;1.00
4637;DHT22;2331;48.806;9.140;2023-09-19T04:07:48;19.90;1.00
4637;DHT22;2331;48.806;9.140;2023-09-19T04:10:16;19.80;1.00
4637;DHT22;2331;48.806;9.140;2023-09-19T04:12:50;19.80;1.00
4637;DHT22;2331;48.806;9.140;2023-09-19T04:15:18;19.80;1.00
4637;DHT22;2331;48.806;9.140;2023-09-19T04:17:45;19.90;1.00
4637;DHT22;2331;48.806;9.140;2023-09-19T04:20:13;19.90;1.00
4637;DHT22;2331;48.806;9.140;2023-09-19T04:22:40;20.00;1.00
4637;DHT22;2331;48.806;9.140;2023-09-19T04:25:07;19.90;1.00
4637;DHT22;2331;48.806;9.140;2023-09-19T04:27:34;20.00;1.00
4637;DHT22;2331;48.806;9.140;2023-09-19T04:30:01;20.00;1.00
4637;DHT22;2331;48.806;9.140;2023-09-19T04:32:33;20.10;1.00
4637;DHT22;2331;48.806;9.140;2023-09-19T04:35:01;20.10;1.00
4637;DHT22;2331;48.806;9.140;2023-09-19T04:37:32;20.10;1.00
4637;DHT22;2331;48.806;9.140;2023-09-19T04:40:00;20.00;1.00
4637;DHT22;2331;48.806;9.140;2023-09-19T04:42:30;20.00;1.00
4637;DHT22;2331;48.806;9.140;2023-09-19T04:44:56;20.00;1.00
4637;DHT22;2331;48.806;9.140;2023-09-19T04:47:25;20.00;1.00
4637;DHT22;2331;48.806;9.140;2023-09-19T04:49:52;20.00;1.00
4637;DHT22;2331;48.806;9.140;2023-09-19T04:52:18;20.00;1.00
4637;DHT22;2331;48.806;9.140;2023-09-19T04:54:47;20.10;1.00
4637;DHT22;2331;48.806;9.140;2023-09-19T04:57:14;20.10;1.00
4637;DHT22;2331;48.806;9.140;2023-09-19T04:59:41;20.00;1.00
4637;DHT22;2331;48.806;9.140;2023-09-19T05:02:08;20.00;1.00
4637;DHT22;2331;48.806;9.140;2023-09-19T05:04:35;20.00;1.00
4637;DHT22;2331;48.806;9.140;2023-09-19T05:07:02;20.00;1.00
4637;DHT22;2331;48.806;9.140;2023-09-19T05:09:30;20.00;1.00
4637;DHT22;2331;48.806;9.140;2023-09-19T05:12:00;20.00;1.00
4637;DHT22;2331;48.806;9.140;2023-09-19T05:14:26;19.90;1.00
4637;DHT22;2331;48.806;9.140;2023-09-19T05:16:53;20.00;1.00
4637;DHT22;2331;48.806;9.140;2023-09-19T05:19:20;20.00;1.00
4637;DHT22;2331;48.806;9.140;2023-09-19T05:21:47;20.00;1.00
4637;DHT22;2331;48.806;9.140;2023-09-19T05:24:14;20.00;1.00
4637;DHT22;2331;48.806;9.140;2023-09-19T05:26:42;19.90;1.00
4637;DHT22;2331;48.806;9.140;2023-09-19T05:29:11;19.90;1.00
4637;DHT22;2331;48.806;9.140;2023-09-19T05:31:38;19.90;1.00
4637;DHT22;2331;48.806;9.140;2023-09-19T05:34:06;19.80;1.00
4637;DHT22;2331;48.806;9.140;2023-09-19T05:36:33;19.80;1.00
4637;DHT22;2331;48.806;9.140;2023-09-19T05:39:00;19.70;1.00
4637;DHT22;2331;48.806;9.140;2023-09-19T05:41:27;19.80;1.00
4637;DHT22;2331;48.806;9.140;2023-09-19T05:43:53;19.70;1.00
4637;DHT22;2331;48.806;9.140;2023-09-19T05:46:22;19.70;1.00
4637;DHT22;2331;48.806;9.140;2023-09-19T05:48:48;19.60;1.00
4637;DHT22;2331;48.806;9.140;2023-09-19T05:51:15;19.60;1.00
4637;DHT22;2331;48.806;9.140;2023-09-19T05:53:43;19.50;1.00
4637;DHT22;2331;48.806;9.140;2023-09-19T05:56:12;19.40;1.00
4637;DHT22;2331;48.806;9.140;2023-09-19T05:58:39;19.40;1.00
4637;DHT22;2331;48.806;9.140;2023-09-19T06:01:08;19.30;1.00
4637;DHT22;2331;48.806;9.140;2023-09-19T06:03:36;19.20;1.00
4637;DHT22;2331;48.806;9.140;2023-09-19T06:06:03;19.00;1.00
4637;DHT22;2331;48.806;9.140;2023-09-19T06:08:31;18.90;1.00
4637;DHT22;2331;48.806;9.140;2023-09-19T06:10:59;18.80;1.00
4637;DHT22;2331;48.806;9.140;2023-09-19T06:13:27;18.90;1.00
4637;DHT22;2331;48.806;9.140;2023-09-19T06:15:54;18.90;1.00
4637;DHT22;2331;48.806;9.140;2023-09-19T06:18:21;18.90;1.00
4637;DHT22;2331;48.806;9.140;2023-09-19T06:20:53;18.80;1.00
4637;DHT22;2331;48.806;9.140;2023-09-19T06:23:20;18.70;1.00
4637;DHT22;2331;48.806;9.140;2023-09-19T06:25:48;18.80;1.00
4637;DHT22;2331;48.806;9.140;2023-09-19T06:28:15;18.90;1.00
4637;DHT22;2331;48.806;9.140;2023-09-19T06:30:45;18.90;1.00
4637;DHT22;2331;48.806;9.140;2023-09-19T06:33:13;18.80;1.00
4637;DHT22;2331;48.806;9.140;2023-09-19T06:35:39;18.90;1.00
4637;DHT22;2331;48.806;9.140;2023-09-19T06:38:08;18.90;1.00
4637;DHT22;2331;48.806;9.140;2023-09-19T06:40:36;18.90;1.00
4637;DHT22;2331;48.806;9.140;2023-09-19T06:43:04;18.90;1.00
4637;DHT22;2331;48.806;9.140;2023-09-19T06:45:32;19.00;1.00
4637;DHT22;2331;48.806;9.140;2023-09-19T06:47:59;19.00;1.00
4637;DHT22;2331;48.806;9.140;2023-09-19T06:50:28;19.10;1.00
4637;DHT22;2331;48.806;9.140;2023-09-19T06:52:58;19.10;1.00
4637;DHT22;2331;48.806;9.140;2023-09-19T06:55:27;19.10;1.00
4637;DHT22;2331;48.806;9.140;2023-09-19T06:57:57;19.20;1.00
4637;DHT22;2331;48.806;9.140;2023-09-19T07:00:24;19.20;1.00
4637;DHT22;2331;48.806;9.140;2023-09-19T07:02:57;19.10;1.00
4637;DHT22;2331;48.806;9.140;2023-09-19T07:05:26;19.20;1.00
4637;DHT22;2331;48.806;9.140;2023-09-19T07:07:54;19.20;1.00
4637;DHT22;2331;48.806;9.140;2023-09-19T07:10:21;19.20;1.00
4637;DHT22;2331;48.806;9.140;2023-09-19T07:12:55;19.20;1.00
4637;DHT22;2331;48.806;9.140;2023-09-19T07:15:22;19.20;1.00
4637;DHT22;2331;48.806;9.140;2023-09-19T07:17:50;19.10;1.00
4637;DHT22;2331;48.806;9.140;2023-09-19T07:20:18;19.20;1.00
4637;DHT22;2331;48.806;9.140;2023-09-19T07:22:46;19.20;1.00
4637;DHT22;2331;48.806;9.140;2023-09-19T07:25:13;19.20;1.00
4637;DHT22;2331;48.806;9.140;2023-09-19T07:27:40;19.10;1.00
4637;DHT22;2331;48.806;9.140;2023-09-19T07:30:09;19.10;1.00
4637;DHT22;2331;48.806;9.140;2023-09-19T07:32:37;19.20;1.00
4637;DHT22;2331;48.806;9.140;2023-09-19T07:35:06;19.20;1.00
4637;DHT22;2331;48.806;9.140;2023-09-19T07:37:34;19.20;1.00
4637;DHT22;2331;48.806;9.140;2023-09-19T07:40:02;19.30;1.00
4637;DHT22;2331;48.806;9.140;2023-09-19T07:42:32;19.30;1.00
4637;DHT22;2331;48.806;9.140;2023-09-19T07:45:00;19.30;1.00
4637;DHT22;2331;48.806;9.140;2023-09-19T07:47:28;19.30;1.00
4637;DHT22;2331;48.806;9.140;2023-09-19T07:49:57;19.40;1.00
4637;DHT22;2331;48.806;9.140;2023-09-19T07:52:24;19.50;1.00
4637;DHT22;2331;48.806;9.140;2023-09-19T07:54:53;19.50;1.00
4637;DHT22;2331;48.806;9.140;2023-09-19T07:57:19;19.50;1.00
4637;DHT22;2331;48.806;9.140;2023-09-19T07:59:46;19.50;1.00
4637;DHT22;2331;48.806;9.140;2023-09-19T08:02:13;19.50;1.00
4637;DHT22;2331;48.806;9.140;2023-09-19T08:04:42;19.50;1.00
4637;DHT22;2331;48.806;9.140;2023-09-19T08:07:11;19.50;1.00
4637;DHT22;2331;48.806;9.140;2023-09-19T08:09:38;19.60;1.00
4637;DHT22;2331;48.806;9.140;2023-09-19T08:12:05;19.60;1.00
4637;DHT22;2331;48.806;9.140;2023-09-19T08:14:33;19.60;1.00
4637;DHT22;2331;48.806;9.140;2023-09-19T08:17:00;19.70;1.00
4637;DHT22;2331;48.806;9.140;2023-09-19T08:19:27;19.70;1.00
4637;DHT22;2331;48.806;9.140;2023-09-19T08:21:58;19.70;1.00
4637;DHT22;2331;48.806;9.140;2023-09-19T08:24:25;19.70;1.00
4637;DHT22;2331;48.806;9.140;2023-09-19T08:26:54;19.70;1.00
4637;DHT22;2331;48.806;9.140;2023-09-19T08:29:21;19.70;1.00
4637;DHT22;2331;48.806;9.140;2023-09-19T08:31:53;19.70;1.00
4637;DHT22;2331;48.806;9.140;2023-09-19T08:34:20;19.60;1.00
4637;DHT22;2331;48.806;9.140;2023-09-19T08:36:47;19.60;1.00
4637;DHT22;2331;48.806;9.140;2023-09-19T08:39:15;19.70;1.00
4637;DHT22;2331;48.806;9.140;2023-09-19T08:41:42;19.80;1.00
4637;DHT22;2331;48.806;9.140;2023-09-19T08:44:09;19.80;1.00
4637;DHT22;2331;48.806;9.140;2023-09-19T08:46:37;19.80;1.00
4637;DHT22;2331;48.806;9.140;2023-09-19T08:49:13;19.70;1.00
4637;DHT22;2331;48.806;9.140;2023-09-19T08:51:45;19.70;1.00
4637;DHT22;2331;48.806;9.140;2023-09-19T08:54:21;19.70;1.00
4637;DHT22;2331;48.806;9.140;2023-09-19T08:56:50;19.70;1.00
4637;DHT22;2331;48.806;9.140;2023-09-19T08:59:21;19.90;1.00
4637;DHT22;2331;48.806;9.140;2023-09-19T09:01:50;19.90;1.00
4637;DHT22;2331;48.806;9.140;2023-09-19T09:04:19;19.90;1.00
4637;DHT22;2331;48.806;9.140;2023-09-19T09:06:46;20.00;1.00
4637;DHT22;2331;48.806;9.140;2023-09-19T09:09:14;20.00;1.00
4637;DHT22;2331;48.806;9.140;2023-09-19T09:11:42;20.00;1.00
4637;DHT22;2331;48.806;9.140;2023-09-19T09:14:09;20.00;1.00
4637;DHT22;2331;48.806;9.140;2023-09-19T09:16:36;20.10;1.00
4637;DHT22;2331;48.806;9.140;2023-09-19T09:19:04;20.10;1.00
4637;DHT22;2331;48.806;9.140;2023-09-19T09:21:31;20.20;1.00
4637;DHT22;2331;48.806;9.140;2023-09-19T09:24:28;20.10;1.00
4637;DHT22;2331;48.806;9.140;2023-09-19T09:26:57;20.20;1.00
4637;DHT22;2331;48.806;9.140;2023-09-19T09:29:41;20.20;1.00
4637;DHT22;2331;48.806;9.140;2023-09-19T09:32:22;20.30;1.00
4637;DHT22;2331;48.806;9.140;2023-09-19T09:34:52;20.50;1.00
4637;DHT22;2331;48.806;9.140;2023-09-19T09:37:19;20.50;1.00
4637;DHT22;2331;48.806;9.140;2023-09-19T09:39:51;20.60;1.00
4637;DHT22;2331;48.806;9.140;2023-09-19T09:42:35;20.70;1.00
4637;DHT22;2331;48.806;9.140;2023-09-19T09:45:16;20.80;1.00
4637;DHT22;2331;48.806;9.140;2023-09-19T09:47:44;20.80;1.00
4637;DHT22;2331;48.806;9.140;2023-09-19T09:50:30;20.80;1.00
4637;DHT22;2331;48.806;9.140;2023-09-19T09:53:22;20.90;1.00
4637;DHT22;2331;48.806;9.140;2023-09-19T09:56:00;21.00;1.00
4637;DHT22;2331;48.806;9.140;2023-09-19T09:58:35;21.00;1.00
4637;DHT22;2331;48.806;9.140;2023-09-19T10:01:03;21.00;1.00
4637;DHT22;2331;48.806;9.140;2023-09-19T10:03:41;21.10;1.00
4637;DHT22;2331;48.806;9.140;2023-09-19T10:06:14;21.20;1.00
4637;DHT22;2331;48.806;9.140;2023-09-19T10:08:59;21.30;1.00
4637;DHT22;2331;48.806;9.140;2023-09-19T10:11:41;21.30;1.00
4637;DHT22;2331;48.806;9.140;2023-09-19T10:14:11;21.30;1.00
4637;DHT22;2331;48.806;9.140;2023-09-19T10:16:42;21.30;1.00
4637;DHT22;2331;48.806;9.140;2023-09-19T10:19:15;21.30;1.00
4637;DHT22;2331;48.806;9.140;2023-09-19T10:21:42;21.40;1.00
4637;DHT22;2331;48.806;9.140;2023-09-19T10:24:11;21.40;1.00
4637;DHT22;2331;48.806;9.140;2023-09-19T10:26:42;21.50;1.00
4637;DHT22;2331;48.806;9.140;2023-09-19T10:29:24;21.60;1.00
4637;DHT22;2331;48.806;9.140;2023-09-19T10:31:57;21.70;1.00
4637;DHT22;2331;48.806;9.140;2023-09-19T10:34:25;21.70;1.00
4637;DHT22;2331;48.806;9.140;2023-09-19T10:36:53;21.70;1.00
4637;DHT22;2331;48.806;9.140;2023-09-19T10:39:20;21.80;1.00
4637;DHT22;2331;48.806;9.140;2023-09-19T10:41:51;21.80;1.00
4637;DHT22;2331;48.806;9.140;2023-09-19T10:44:25;21.80;1.00
4637;DHT22;2331;48.806;9.140;2023-09-19T10:46:54;22.00;1.00
4637;DHT22;2331;48.806;9.140;2023-09-19T10:49:24;22.10;1.00
4637;DHT22;2331;48.806;9.140;2023-09-19T10:51:54;22.10;1.00
4637;DHT22;2331;48.806;9.140;2023-09-19T10:54:27;22.20;1.00
4637;DHT22;2331;48.806;9.140;2023-09-19T10:56:56;22.10;1.00
4637;DHT22;2331;48.806;9.140;2023-09-19T10:59:26;22.10;1.00
4637;DHT22;2331;48.806;9.140;2023-09-19T11:02:00;22.20;1.00
4637;DHT22;2331;48.806;9.140;2023-09-19T11:04:42;22.30;1.00
4637;DHT22;2331;48.806;9.140;2023-09-19T11:07:14;22.40;1.00
4637;DHT22;2331;48.806;9.140;2023-09-19T11:09:45;22.50;1.00
4637;DHT22;2331;48.806;9.140;2023-09-19T11:12:26;22.40;1.00
4637;DHT22;2331;48.806;9.140;2023-09-19T11:18:55;22.50;1.00
4637;DHT22;2331;48.806;9.140;2023-09-19T11:24:31;22.70;1.00
4637;DHT22;2331;48.806;9.140;2023-09-19T11:27:17;22.70;1.00
4637;DHT22;2331;48.806;9.140;2023-09-19T11:29:45;22.70;1.00
4637;DHT22;2331;48.806;9.140;2023-09-19T11:32:15;22.90;1.00
4637;DHT22;2331;48.806;9.140;2023-09-19T11:34:46;22.90;1.00
4637;DHT22;2331;48.806;9.140;2023-09-19T11:40:45;23.10;1.00
4637;DHT22;2331;48.806;9.140;2023-09-19T11:43:30;23.20;1.00
4637;DHT22;2331;48.806;9.140;2023-09-19T11:46:08;23.20;1.00
4637;DHT22;2331;48.806;9.140;2023-09-19T11:48:38;23.20;1.00
4637;DHT22;2331;48.806;9.140;2023-09-19T11:51:15;23.30;1.00
4637;DHT22;2331;48.806;9.140;2023-09-19T11:53:47;23.40;1.00
4637;DHT22;2331;48.806;9.140;2023-09-19T11:56:16;23.50;1.00
4637;DHT22;2331;48.806;9.140;2023-09-19T11:58:44;23.50;1.00
4637;DHT22;2331;48.806;9.140;2023-09-19T12:01:13;23.50;1.00
4637;DHT22;2331;48.806;9.140;2023-09-19T12:03:50;23.60;1.00
4637;DHT22;2331;48.806;9.140;2023-09-19T12:06:20;23.70;1.00
4637;DHT22;2331;48.806;9.140;2023-09-19T12:08:47;23.80;1.00
4637;DHT22;2331;48.806;9.140;2023-09-19T12:11:16;23.80;1.00
4637;DHT22;2331;48.806;9.140;2023-09-19T12:13:43;23.80;1.00
4637;DHT22;2331;48.806;9.140;2023-09-19T12:16:15;23.90;1.00
4637;DHT22;2331;48.806;9.140;2023-09-19T12:18:43;24.00;1.00
4637;DHT22;2331;48.806;9.140;2023-09-19T12:21:26;24.10;1.00
4637;DHT22;2331;48.806;9.140;2023-09-19T12:24:05;24.10;1.00
4637;DHT22;2331;48.806;9.140;2023-09-19T12:26:39;24.20;1.00
4637;DHT22;2331;48.806;9.140;2023-09-19T12:29:14;24.20;1.00
4637;DHT22;2331;48.806;9.140;2023-09-19T12:31:52;24.10;1.00
4637;DHT22;2331;48.806;9.140;2023-09-19T12:34:22;24.30;1.00
4637;DHT22;2331;48.806;9.140;2023-09-19T12:37:05;24.40;1.00
4637;DHT22;2331;48.806;9.140;2023-09-19T12:39:37;24.40;1.00
4637;DHT22;2331;48.806;9.140;2023-09-19T12:42:07;24.50;1.00
4637;DHT22;2331;48.806;9.140;2023-09-19T12:44:35;24.50;1.00
4637;DHT22;2331;48.806;9.140;2023-09-19T12:47:09;24.50;1.00
4637;DHT22;2331;48.806;9.140;2023-09-19T12:49:36;24.40;1.00
4637;DHT22;2331;48.806;9.140;2023-09-19T12:52:05;24.50;1.00
4637;DHT22;2331;48.806;9.140;2023-09-19T12:54:38;24.40;1.00
4637;DHT22;2331;48.806;9.140;2023-09-19T12:57:05;24.40;1.00
4637;DHT22;2331;48.806;9.140;2023-09-19T12:59:32;24.40;1.00
4637;DHT22;2331;48.806;9.140;2023-09-19T13:02:04;24.20;1.00
4637;DHT22;2331;48.806;9.140;2023-09-19T13:04:33;24.20;1.00
4637;DHT22;2331;48.806;9.140;2023-09-19T13:07:07;24.10;1.00
4637;DHT22;2331;48.806;9.140;2023-09-19T13:09:34;24.20;1.00
4637;DHT22;2331;48.806;9.140;2023-09-19T13:12:01;24.20;1.00
4637;DHT22;2331;48.806;9.140;2023-09-19T13:14:30;24.10;1.00
4637;DHT22;2331;48.806;9.140;2023-09-19T13:17:00;24.00;1.00
4637;DHT22;2331;48.806;9.140;2023-09-19T13:19:41;24.10;1.00
4637;DHT22;2331;48.806;9.140;2023-09-19T13:22:39;24.20;1.00
4637;DHT22;2331;48.806;9.140;2023-09-19T13:25:08;24.10;1.00
4637;DHT22;2331;48.806;9.140;2023-09-19T13:27:40;24.20;1.00
4637;DHT22;2331;48.806;9.140;2023-09-19T13:30:07;24.10;1.00
4637;DHT22;2331;48.806;9.140;2023-09-19T13:32:34;24.10;1.00
4637;DHT22;2331;48.806;9.140;2023-09-19T13:35:01;24.10;1.00
4637;DHT22;2331;48.806;9.140;2023-09-19T13:37:28;24.20;1.00
4637;DHT22;2331;48.806;9.140;2023-09-19T13:39:56;24.20;1.00
4637;DHT22;2331;48.806;9.140;2023-09-19T13:42:25;24.20;1.00
4637;DHT22;2331;48.806;9.140;2023-09-19T13:44:55;24.20;1.00
4637;DHT22;2331;48.806;9.140;2023-09-19T13:47:21;24.10;1.00
4637;DHT22;2331;48.806;9.140;2023-09-19T13:49:50;24.20;1.00
4637;DHT22;2331;48.806;9.140;2023-09-19T13:52:18;24.10;1.00
4637;DHT22;2331;48.806;9.140;2023-09-19T13:54:44;24.10;1.00
4637;DHT22;2331;48.806;9.140;2023-09-19T13:57:12;24.10;1.00
4637;DHT22;2331;48.806;9.140;2023-09-19T13:59:39;24.00;1.00
4637;DHT22;2331;48.806;9.140;2023-09-19T14:02:06;24.00;1.00
4637;DHT22;2331;48.806;9.140;2023-09-19T14:04:33;23.90;1.00
4637;DHT22;2331;48.806;9.140;2023-09-19T14:07:00;24.00;1.00
4637;DHT22;2331;48.806;9.140;2023-09-19T14:09:27;24.00;1.00
4637;DHT22;2331;48.806;9.140;2023-09-19T14:11:54;24.20;1.00
4637;DHT22;2331;48.806;9.140;2023-09-19T14:14:22;24.10;1.00
4637;DHT22;2331;48.806;9.140;2023-09-19T14:16:49;24.20;1.00
4637;DHT22;2331;48.806;9.140;2023-09-19T14:19:17;24.20;1.00
4637;DHT22;2331;48.806;9.140;2023-09-19T14:21:44;24.10;1.00
4637;DHT22;2331;48.806;9.140;2023-09-19T14:24:11;24.00;1.00
4637;DHT22;2331;48.806;9.140;2023-09-19T14:26:42;24.00;1.00
4637;DHT22;2331;48.806;9.140;2023-09-19T14:29:09;24.10;1.00
4637;DHT22;2331;48.806;9.140;2023-09-19T14:31:38;24.10;1.00
4637;DHT22;2331;48.806;9.140;2023-09-19T14:34:07;24.10;1.00
4637;DHT22;2331;48.806;9.140;2023-09-19T14:36:35;24.10;1.00
4637;DHT22;2331;48.806;9.140;2023-09-19T14:39:02;24.20;1.00
4637;DHT22;2331;48.806;9.140;2023-09-19T14:41:29;24.20;1.00
4637;DHT22;2331;48.806;9.140;2023-09-19T14:43:57;24.20;1.00
4637;DHT22;2331;48.806;9.140;2023-09-19T14:46:23;24.20;1.00
4637;DHT22;2331;48.806;9.140;2023-09-19T14:48:52;24.20;1.00
4637;DHT22;2331;48.806;9.140;2023-09-19T14:51:19;24.20;1.00
4637;DHT22;2331;48.806;9.140;2023-09-19T14:53:46;24.20;1.00
4637;DHT22;2331;48.806;9.140;2023-09-19T14:56:13;24.20;1.00
4637;DHT22;2331;48.806;9.140;2023-09-19T14:58:43;24.20;1.00
4637;DHT22;2331;48.806;9.140;2023-09-19T15:01:12;24.30;1.00
4637;DHT22;2331;48.806;9.140;2023-09-19T15:03:39;24.30;1.00
4637;DHT22;2331;48.806;9.140;2023-09-19T15:06:09;24.30;1.00
4637;DHT22;2331;48.806;9.140;2023-09-19T15:08:40;24.30;1.00
4637;DHT22;2331;48.806;9.140;2023-09-19T15:11:11;24.30;1.00
4637;DHT22;2331;48.806;9.140;2023-09-19T15:13:38;24.30;1.00
4637;DHT22;2331;48.806;9.140;2023-09-19T15:16:06;24.20;1.00
4637;DHT22;2331;48.806;9.140;2023-09-19T15:18:34;24.30;1.00
4637;DHT22;2331;48.806;9.140;2023-09-19T15:21:03;24.40;1.00
4637;DHT22;2331;48.806;9.140;2023-09-19T15:23:31;24.40;1.00
4637;DHT22;2331;48.806;9.140;2023-09-19T15:26:00;24.20;1.00
4637;DHT22;2331;48.806;9.140;2023-09-19T15:28:27;24.30;1.00
4637;DHT22;2331;48.806;9.140;2023-09-19T15:30:58;24.30;1.00
4637;DHT22;2331;48.806;9.140;2023-09-19T15:33:25;24.20;1.00
4637;DHT22;2331;48.806;9.140;2023-09-19T15:36:00;24.20;1.00
4637;DHT22;2331;48.806;9.140;2023-09-19T15:38:27;24.30;1.00
4637;DHT22;2331;48.806;9.140;2023-09-19T15:40:56;24.40;1.00
4637;DHT22;2331;48.806;9.140;2023-09-19T15:43:22;24.30;1.00
4637;DHT22;2331;48.806;9.140;2023-09-19T15:45:49;24.30;1.00
4637;DHT22;2331;48.806;9.140;2023-09-19T15:48:17;24.30;1.00
4637;DHT22;2331;48.806;9.140;2023-09-19T15:50:44;24.30;1.00
4637;DHT22;2331;48.806;9.140;2023-09-19T15:53:10;24.30;1.00
4637;DHT22;2331;48.806;9.140;2023-09-19T15:55:38;24.20;1.00
4637;DHT22;2331;48.806;9.140;2023-09-19T15:58:07;24.30;1.00
4637;DHT22;2331;48.806;9.140;2023-09-19T16:00:34;24.20;1.00
4637;DHT22;2331;48.806;9.140;2023-09-19T16:03:02;24.20;1.00
4637;DHT22;2331;48.806;9.140;2023-09-19T16:05:34;24.20;1.00
4637;DHT22;2331;48.806;9.140;2023-09-19T16:08:03;24.30;1.00
4637;DHT22;2331;48.806;9.140;2023-09-19T16:10:30;24.30;1.00
4637;DHT22;2331;48.806;9.140;2023-09-19T16:13:00;24.30;1.00
4637;DHT22;2331;48.806;9.140;2023-09-19T16:15:28;24.30;1.00
4637;DHT22;2331;48.806;9.140;2023-09-19T16:17:55;24.30;1.00
4637;DHT22;2331;48.806;9.140;2023-09-19T16:20:21;24.30;1.00
4637;DHT22;2331;48.806;9.140;2023-09-19T16:22:49;24.30;1.00
4637;DHT22;2331;48.806;9.140;2023-09-19T16:25:15;24.40;1.00
4637;DHT22;2331;48.806;9.140;2023-09-19T16:27:42;24.40;1.00
4637;DHT22;2331;48.806;9.140;2023-09-19T16:30:09;24.40;1.00
4637;DHT22;2331;48.806;9.140;2023-09-19T16:32:38;24.40;1.00
4637;DHT22;2331;48.806;9.140;2023-09-19T16:35:06;24.30;1.00
4637;DHT22;2331;48.806;9.140;2023-09-19T16:37:34;24.30;1.00
4637;DHT22;2331;48.806;9.140;2023-09-19T16:40:03;24.30;1.00
4637;DHT22;2331;48.806;9.140;2023-09-19T16:42:32;24.30;1.00
4637;DHT22;2331;48.806;9.140;2023-09-19T16:44:58;24.30;1.00